createdAt,value
2018-12-30T00:00:13.025Z,4.00
2018-12-30T00:01:13.025Z,4.00
2018-12-30T00:02:13.009Z,4.00
2018-12-30T00:03:12.999Z,4.00
2018-12-30T00:04:12.992Z,4.00
2018-12-30T00:05:12.986Z,4.00
2018-12-30T00:06:12.974Z,4.00
2018-12-30T00:07:12.968Z,4.00
2018-12-30T00:08:12.960Z,4.00
2018-12-30T00:09:12.949Z,4.00
2018-12-30T00:10:12.944Z,4.00
2018-12-30T00:11:12.939Z,4.00
2018-12-30T00:12:12.928Z,4.00
2018-12-30T00:13:12.919Z,4.00
2018-12-30T00:14:12.911Z,4.00
2018-12-30T00:15:12.903Z,4.00
2018-12-30T00:16:12.896Z,4.00
2018-12-30T00:17:12.891Z,4.00
2018-12-30T00:18:12.880Z,4.00
2018-12-30T00:19:12.872Z,4.00
2018-12-30T00:20:12.864Z,4.00
2018-12-30T00:21:12.853Z,4.00
2018-12-30T00:22:12.851Z,4.00
2018-12-30T00:23:12.841Z,4.00
2018-12-30T00:24:12.833Z,4.00
2018-12-30T00:25:12.825Z,4.00
2018-12-30T00:26:12.816Z,4.00
2018-12-30T00:27:12.809Z,4.00
2018-12-30T00:28:12.803Z,4.00
2018-12-30T00:29:12.791Z,4.00
2018-12-30T00:30:12.792Z,4.00
2018-12-30T00:31:12.777Z,4.00
2018-12-30T00:32:12.768Z,4.00
2018-12-30T00:33:12.763Z,4.00
2018-12-30T00:34:12.753Z,4.00
2018-12-30T00:35:12.744Z,4.00
2018-12-30T00:36:12.736Z,4.00
2018-12-30T00:37:12.729Z,4.00
2018-12-30T00:38:12.721Z,4.00
2018-12-30T00:39:12.713Z,4.00
2018-12-30T00:40:12.707Z,4.00
2018-12-30T00:41:12.707Z,4.00
2018-12-30T00:42:12.691Z,4.00
2018-12-30T00:43:12.685Z,4.00
2018-12-30T00:44:12.675Z,4.00
2018-12-30T00:45:12.665Z,4.00
2018-12-30T00:46:12.658Z,4.00
2018-12-30T00:47:12.654Z,4.00
2018-12-30T00:48:12.642Z,4.00
2018-12-30T00:49:12.636Z,4.00
2018-12-30T00:50:12.631Z,4.00
2018-12-30T00:51:16.987Z,4.00
2018-12-30T00:52:12.617Z,4.00
2018-12-30T00:53:12.607Z,4.00
2018-12-30T00:54:12.600Z,4.00
2018-12-30T00:55:12.591Z,4.00
2018-12-30T00:56:12.582Z,4.00
2018-12-30T00:57:12.571Z,4.00
2018-12-30T00:58:12.567Z,4.00
2018-12-30T00:59:12.559Z,4.00
2018-12-30T01:00:12.550Z,4.00
2018-12-30T01:01:12.545Z,4.00
2018-12-30T01:02:12.532Z,4.00
2018-12-30T01:03:12.527Z,4.00
2018-12-30T01:04:12.519Z,4.00
2018-12-30T01:05:12.514Z,4.00
2018-12-30T01:06:12.501Z,4.00
2018-12-30T01:07:12.495Z,4.00
2018-12-30T01:08:12.491Z,4.00
2018-12-30T01:09:12.478Z,4.00
2018-12-30T01:10:12.472Z,4.00
2018-12-30T01:11:12.464Z,4.00
2018-12-30T01:12:12.458Z,4.00
2018-12-30T01:13:12.451Z,4.00
2018-12-30T01:14:12.442Z,4.00
2018-12-30T01:15:12.438Z,4.00
2018-12-30T01:16:12.426Z,4.00
2018-12-30T01:17:12.416Z,4.00
2018-12-30T01:18:12.412Z,4.00
2018-12-30T01:19:12.402Z,4.00
2018-12-30T01:20:12.398Z,4.00
2018-12-30T01:21:12.388Z,4.00
2018-12-30T01:22:12.382Z,4.00
2018-12-30T01:23:12.372Z,4.00
2018-12-30T01:24:12.375Z,4.00
2018-12-30T01:25:12.357Z,4.00
2018-12-30T01:26:12.349Z,4.00
2018-12-30T01:27:12.348Z,4.00
2018-12-30T01:28:12.333Z,4.00
2018-12-30T01:29:12.329Z,4.00
2018-12-30T01:30:12.320Z,4.00
2018-12-30T01:31:12.311Z,4.00
2018-12-30T01:32:12.303Z,4.00
2018-12-30T01:33:12.296Z,4.00
2018-12-30T01:34:12.293Z,4.00
2018-12-30T01:35:12.284Z,4.00
2018-12-30T01:36:12.276Z,4.00
2018-12-30T01:37:12.267Z,4.00
2018-12-30T01:38:12.259Z,4.00
2018-12-30T01:39:12.255Z,4.00
2018-12-30T01:40:12.245Z,4.00
2018-12-30T01:41:12.240Z,4.00
2018-12-30T01:42:12.234Z,4.00
2018-12-30T01:43:12.224Z,4.00
2018-12-30T01:44:12.217Z,4.00
2018-12-30T01:45:12.209Z,4.00
2018-12-30T01:46:12.203Z,4.00
2018-12-30T01:47:12.195Z,4.00
2018-12-30T01:48:12.191Z,4.00
2018-12-30T01:49:12.179Z,4.00
2018-12-30T01:50:12.176Z,4.00
2018-12-30T01:51:12.179Z,4.00
2018-12-30T01:52:12.160Z,4.00
2018-12-30T01:53:12.156Z,4.00
2018-12-30T01:54:12.143Z,4.00
2018-12-30T01:55:12.137Z,4.00
2018-12-30T01:56:12.130Z,4.00
2018-12-30T01:57:12.121Z,4.00
2018-12-30T01:58:12.113Z,4.00
2018-12-30T01:59:12.108Z,4.00
2018-12-30T02:00:12.099Z,4.00
2018-12-30T02:01:12.091Z,4.00
2018-12-30T02:02:12.083Z,4.00
2018-12-30T02:03:12.106Z,4.00
2018-12-30T02:04:12.070Z,4.00
2018-12-30T02:05:12.061Z,4.00
2018-12-30T02:06:12.057Z,4.00
2018-12-30T02:07:12.047Z,4.00
2018-12-30T02:08:12.042Z,4.00
2018-12-30T02:09:12.034Z,4.00
2018-12-30T02:10:12.023Z,4.00
2018-12-30T02:11:12.021Z,4.00
2018-12-30T02:12:12.023Z,4.00
2018-12-30T02:13:12.002Z,4.00
2018-12-30T02:14:11.994Z,4.00
2018-12-30T02:15:11.989Z,4.00
2018-12-30T02:16:11.984Z,4.00
2018-12-30T02:17:11.976Z,4.00
2018-12-30T02:18:11.966Z,4.00
2018-12-30T02:19:11.957Z,4.00
2018-12-30T02:20:11.958Z,4.00
2018-12-30T02:21:11.944Z,4.00
2018-12-30T02:22:11.939Z,4.00
2018-12-30T02:23:11.943Z,4.00
2018-12-30T02:24:11.922Z,4.00
2018-12-30T02:25:11.913Z,4.00
2018-12-30T02:26:11.909Z,4.00
2018-12-30T02:27:11.902Z,4.00
2018-12-30T02:28:11.892Z,4.00
2018-12-30T02:29:11.885Z,4.00
2018-12-30T02:30:11.883Z,4.00
2018-12-30T02:31:11.869Z,4.00
2018-12-30T02:32:11.862Z,4.00
2018-12-30T02:33:11.854Z,4.00
2018-12-30T02:34:11.867Z,4.00
2018-12-30T02:35:11.842Z,4.00
2018-12-30T02:36:11.843Z,4.00
2018-12-30T02:37:11.826Z,4.00
2018-12-30T02:38:11.822Z,4.00
2018-12-30T02:39:11.812Z,4.00
2018-12-30T02:40:11.807Z,4.00
2018-12-30T02:41:11.801Z,4.00
2018-12-30T02:42:11.792Z,4.00
2018-12-30T02:43:11.787Z,4.00
2018-12-30T02:44:11.780Z,4.00
2018-12-30T02:45:11.771Z,4.00
2018-12-30T02:46:11.770Z,4.00
2018-12-30T02:47:11.752Z,4.00
2018-12-30T02:48:11.747Z,4.00
2018-12-30T02:49:11.741Z,4.00
2018-12-30T02:50:11.733Z,4.00
2018-12-30T02:51:11.726Z,4.00
2018-12-30T02:52:11.726Z,4.00
2018-12-30T02:53:11.712Z,4.00
2018-12-30T02:54:11.705Z,4.00
2018-12-30T02:55:11.696Z,4.00
2018-12-30T02:56:11.687Z,4.00
2018-12-30T02:57:11.681Z,4.00
2018-12-30T02:58:11.674Z,4.00
2018-12-30T02:59:11.668Z,4.00
2018-12-30T03:00:11.660Z,4.00
2018-12-30T03:01:11.654Z,4.00
2018-12-30T03:02:11.642Z,4.00
2018-12-30T03:03:11.635Z,4.00
2018-12-30T03:04:11.631Z,4.00
2018-12-30T03:05:11.620Z,4.00
2018-12-30T03:06:11.614Z,4.00
2018-12-30T03:07:11.609Z,4.00
2018-12-30T03:08:11.600Z,4.00
2018-12-30T03:09:11.596Z,4.00
2018-12-30T03:10:11.585Z,4.00
2018-12-30T03:11:11.580Z,4.00
2018-12-30T03:12:11.572Z,4.00
2018-12-30T03:13:11.567Z,4.00
2018-12-30T03:14:11.613Z,4.00
2018-12-30T03:15:11.556Z,4.00
2018-12-30T03:16:11.542Z,4.00
2018-12-30T03:17:11.535Z,4.00
2018-12-30T03:18:11.530Z,4.00
2018-12-30T03:19:11.522Z,4.00
2018-12-30T03:20:11.515Z,4.00
2018-12-30T03:21:11.508Z,4.00
2018-12-30T03:22:11.501Z,4.00
2018-12-30T03:23:11.495Z,4.00
2018-12-30T03:24:11.487Z,4.00
2018-12-30T03:25:11.483Z,4.00
2018-12-30T03:26:11.474Z,4.00
2018-12-30T03:27:11.467Z,4.00
2018-12-30T03:28:11.459Z,4.00
2018-12-30T03:29:11.449Z,4.00
2018-12-30T03:30:11.463Z,4.00
2018-12-30T03:31:11.438Z,4.00
2018-12-30T03:32:11.430Z,4.00
2018-12-30T03:33:11.425Z,4.00
2018-12-30T03:34:11.416Z,4.00
2018-12-30T03:35:11.410Z,4.00
2018-12-30T03:36:11.402Z,4.00
2018-12-30T03:37:11.394Z,4.00
2018-12-30T03:38:11.385Z,4.00
2018-12-30T03:39:11.382Z,4.00
2018-12-30T03:40:11.379Z,4.00
2018-12-30T03:41:11.362Z,4.00
2018-12-30T03:42:11.356Z,8.00
2018-12-30T03:43:11.353Z,8.00
2018-12-30T03:44:11.345Z,4.00
2018-12-30T03:45:11.333Z,4.00
2018-12-30T03:46:11.329Z,4.00
2018-12-30T03:47:11.322Z,4.00
2018-12-30T03:48:11.316Z,4.00
2018-12-30T03:49:11.307Z,4.00
2018-12-30T03:50:11.300Z,4.00
2018-12-30T03:51:11.293Z,4.00
2018-12-30T03:52:11.294Z,4.00
2018-12-30T03:53:11.276Z,4.00
2018-12-30T03:54:11.272Z,4.00
2018-12-30T03:55:11.266Z,4.00
2018-12-30T03:56:11.259Z,4.00
2018-12-30T03:57:11.458Z,4.00
2018-12-30T03:58:11.244Z,4.00
2018-12-30T03:59:11.236Z,4.00
2018-12-30T04:00:11.231Z,4.00
2018-12-30T04:01:11.224Z,4.00
2018-12-30T04:02:11.216Z,4.00
2018-12-30T04:03:11.209Z,4.00
2018-12-30T04:04:11.200Z,4.00
2018-12-30T04:05:11.194Z,4.00
2018-12-30T04:06:11.187Z,4.00
2018-12-30T04:07:11.179Z,4.00
2018-12-30T04:08:11.172Z,4.00
2018-12-30T04:09:11.165Z,4.00
2018-12-30T04:10:11.161Z,4.00
2018-12-30T04:11:11.150Z,4.00
2018-12-30T04:12:11.144Z,4.00
2018-12-30T04:13:11.134Z,4.00
2018-12-30T04:14:11.129Z,4.00
2018-12-30T04:15:11.126Z,4.00
2018-12-30T04:16:11.127Z,4.00
2018-12-30T04:17:11.108Z,4.00
2018-12-30T04:18:38.992Z,4.00
2018-12-30T04:19:11.094Z,4.00
2018-12-30T04:20:11.087Z,4.00
2018-12-30T04:21:11.076Z,4.00
2018-12-30T04:22:16.864Z,4.00
2018-12-30T04:23:11.066Z,4.00
2018-12-30T04:24:11.058Z,4.00
2018-12-30T04:25:11.062Z,4.00
2018-12-30T04:26:11.044Z,4.00
2018-12-30T04:27:11.036Z,4.00
2018-12-30T04:28:11.028Z,4.00
2018-12-30T04:29:11.020Z,4.00
2018-12-30T04:30:11.014Z,4.00
2018-12-30T04:31:11.007Z,4.00
2018-12-30T04:32:11.000Z,4.00
2018-12-30T04:33:11.003Z,4.00
2018-12-30T04:34:10.987Z,4.00
2018-12-30T04:35:10.980Z,4.00
2018-12-30T04:36:10.973Z,4.00
2018-12-30T04:37:10.967Z,4.00
2018-12-30T04:38:10.956Z,4.00
2018-12-30T04:39:10.951Z,4.00
2018-12-30T04:40:10.945Z,4.00
2018-12-30T04:41:10.935Z,4.00
2018-12-30T04:42:10.926Z,4.00
2018-12-30T04:43:10.919Z,4.00
2018-12-30T04:44:10.913Z,4.00
2018-12-30T04:45:10.906Z,4.00
2018-12-30T04:46:10.898Z,4.00
2018-12-30T04:47:10.890Z,4.00
2018-12-30T04:48:10.887Z,4.00
2018-12-30T04:49:10.878Z,4.00
2018-12-30T04:50:10.868Z,4.00
2018-12-30T04:51:10.861Z,4.00
2018-12-30T04:52:10.856Z,4.00
2018-12-30T04:53:10.846Z,4.00
2018-12-30T04:54:10.840Z,4.00
2018-12-30T04:55:10.834Z,4.00
2018-12-30T04:56:10.829Z,4.00
2018-12-30T04:57:10.820Z,4.00
2018-12-30T04:58:10.814Z,4.00
2018-12-30T04:59:10.803Z,4.00
2018-12-30T05:00:10.795Z,4.00
2018-12-30T05:01:10.789Z,4.00
2018-12-30T05:02:10.781Z,4.00
2018-12-30T05:03:10.782Z,4.00
2018-12-30T05:04:10.770Z,4.00
2018-12-30T05:05:10.761Z,4.00
2018-12-30T05:06:10.753Z,4.00
2018-12-30T05:07:10.745Z,4.00
2018-12-30T05:08:10.738Z,4.00
2018-12-30T05:09:10.730Z,4.00
2018-12-30T05:10:10.725Z,4.00
2018-12-30T05:11:10.718Z,4.00
2018-12-30T05:12:10.710Z,4.00
2018-12-30T05:13:10.701Z,4.00
2018-12-30T05:14:10.695Z,4.00
2018-12-30T05:15:10.686Z,4.00
2018-12-30T05:16:10.678Z,4.00
2018-12-30T05:17:10.672Z,4.00
2018-12-30T05:18:10.664Z,4.00
2018-12-30T05:19:10.656Z,4.00
2018-12-30T05:20:10.647Z,4.00
2018-12-30T05:21:10.642Z,4.00
2018-12-30T05:22:10.634Z,4.00
2018-12-30T05:23:10.627Z,4.00
2018-12-30T05:24:10.674Z,4.00
2018-12-30T05:25:10.613Z,4.00
2018-12-30T05:26:10.605Z,4.00
2018-12-30T05:27:10.601Z,4.00
2018-12-30T05:28:10.599Z,4.00
2018-12-30T05:29:10.582Z,4.00
2018-12-30T05:30:10.575Z,4.00
2018-12-30T05:31:10.569Z,4.00
2018-12-30T05:32:10.562Z,4.00
2018-12-30T05:33:10.553Z,4.00
2018-12-30T05:34:10.548Z,4.00
2018-12-30T05:35:10.540Z,4.00
2018-12-30T05:36:10.531Z,4.00
2018-12-30T05:37:10.523Z,4.00
2018-12-30T05:38:10.515Z,4.00
2018-12-30T05:39:10.510Z,4.00
2018-12-30T05:40:10.501Z,4.00
2018-12-30T05:41:10.493Z,4.00
2018-12-30T05:42:10.489Z,4.00
2018-12-30T05:43:10.480Z,4.00
2018-12-30T05:44:10.471Z,4.00
2018-12-30T05:45:10.465Z,4.00
2018-12-30T05:46:10.455Z,4.00
2018-12-30T05:47:10.449Z,4.00
2018-12-30T05:48:10.441Z,4.00
2018-12-30T05:49:10.439Z,4.00
2018-12-30T05:50:10.427Z,4.00
2018-12-30T05:51:10.418Z,4.00
2018-12-30T05:52:10.412Z,4.00
2018-12-30T05:53:10.404Z,4.00
2018-12-30T05:54:10.397Z,4.00
2018-12-30T05:55:10.391Z,4.00
2018-12-30T05:56:10.384Z,4.00
2018-12-30T05:57:10.377Z,4.00
2018-12-30T05:58:10.369Z,4.00
2018-12-30T05:59:10.360Z,4.00
2018-12-30T06:00:10.357Z,4.00
2018-12-30T06:01:10.344Z,4.00
2018-12-30T06:02:10.338Z,4.00
2018-12-30T06:03:10.334Z,4.00
2018-12-30T06:04:10.323Z,4.00
2018-12-30T06:05:10.319Z,4.00
2018-12-30T06:06:10.308Z,4.00
2018-12-30T06:07:10.309Z,4.00
2018-12-30T06:08:10.292Z,4.00
2018-12-30T06:09:10.286Z,4.00
2018-12-30T06:10:10.274Z,4.00
2018-12-30T06:11:10.271Z,4.00
2018-12-30T06:12:10.264Z,4.00
2018-12-30T06:13:10.256Z,4.00
2018-12-30T06:14:10.249Z,4.00
2018-12-30T06:15:10.240Z,4.00
2018-12-30T06:16:10.234Z,4.00
2018-12-30T06:17:10.226Z,4.00
2018-12-30T06:18:10.218Z,4.00
2018-12-30T06:19:10.212Z,4.00
2018-12-30T06:20:10.205Z,4.00
2018-12-30T06:21:10.195Z,4.00
2018-12-30T06:22:10.190Z,4.00
2018-12-30T06:23:10.180Z,4.00
2018-12-30T06:24:10.174Z,4.00
2018-12-30T06:25:10.168Z,4.00
2018-12-30T06:26:10.159Z,4.00
2018-12-30T06:27:10.152Z,4.00
2018-12-30T06:28:10.144Z,4.00
2018-12-30T06:29:10.137Z,4.00
2018-12-30T06:30:10.126Z,4.00
2018-12-30T06:31:10.121Z,4.00
2018-12-30T06:32:10.113Z,4.00
2018-12-30T06:33:10.105Z,4.00
2018-12-30T06:34:10.104Z,4.00
2018-12-30T06:35:10.094Z,4.00
2018-12-30T06:36:10.087Z,4.00
2018-12-30T06:37:10.076Z,8.00
2018-12-30T06:38:10.069Z,8.00
2018-12-30T06:39:10.060Z,8.00
2018-12-30T06:40:11.478Z,8.00
2018-12-30T06:41:10.052Z,8.00
2018-12-30T06:42:10.041Z,8.00
2018-12-30T06:43:10.031Z,8.00
2018-12-30T06:44:10.027Z,8.00
2018-12-30T06:45:10.018Z,8.00
2018-12-30T06:46:10.010Z,4.00
2018-12-30T06:47:10.002Z,8.00
2018-12-30T06:48:09.995Z,8.00
2018-12-30T06:49:10.696Z,8.00
2018-12-30T06:50:09.979Z,8.00
2018-12-30T06:51:09.976Z,8.00
2018-12-30T06:52:09.965Z,4.00
2018-12-30T06:53:09.957Z,8.00
2018-12-30T06:54:09.951Z,8.00
2018-12-30T06:55:09.943Z,8.00
2018-12-30T06:56:09.935Z,8.00
2018-12-30T06:57:09.926Z,8.00
2018-12-30T06:58:09.920Z,12.00
2018-12-30T06:59:09.912Z,12.00
2018-12-30T07:00:09.906Z,12.00
2018-12-30T07:01:09.896Z,8.00
2018-12-30T07:02:09.943Z,8.00
2018-12-30T07:03:09.881Z,8.00
2018-12-30T07:04:09.882Z,12.00
2018-12-30T07:05:09.869Z,12.00
2018-12-30T07:06:09.859Z,12.00
2018-12-30T07:07:09.851Z,16.00
2018-12-30T07:08:09.847Z,16.00
2018-12-30T07:09:09.837Z,16.00
2018-12-30T07:10:09.827Z,16.00
2018-12-30T07:11:09.823Z,20.00
2018-12-30T07:12:09.817Z,20.00
2018-12-30T07:13:09.805Z,24.00
2018-12-30T07:14:09.799Z,24.00
2018-12-30T07:15:09.788Z,20.00
2018-12-30T07:16:09.784Z,28.00
2018-12-30T07:17:09.777Z,32.00
2018-12-30T07:18:09.770Z,28.00
2018-12-30T07:19:09.761Z,36.00
2018-12-30T07:20:09.752Z,36.00
2018-12-30T07:21:09.747Z,44.00
2018-12-30T07:22:09.737Z,44.00
2018-12-30T07:23:09.731Z,52.00
2018-12-30T07:24:09.722Z,60.00
2018-12-30T07:25:09.718Z,64.00
2018-12-30T07:26:09.712Z,68.00
2018-12-30T07:27:09.703Z,68.00
2018-12-30T07:28:09.693Z,68.00
2018-12-30T07:29:09.693Z,64.00
2018-12-30T07:30:09.679Z,72.00
2018-12-30T07:31:09.676Z,84.00
2018-12-30T07:32:09.665Z,88.00
2018-12-30T07:33:09.658Z,92.00
2018-12-30T07:34:09.652Z,84.00
2018-12-30T07:35:09.636Z,88.00
2018-12-30T07:36:09.635Z,108.00
2018-12-30T07:37:09.629Z,116.00
2018-12-30T07:38:09.618Z,144.00
2018-12-30T07:39:09.637Z,140.00
2018-12-30T07:40:09.606Z,140.00
2018-12-30T07:41:09.598Z,144.00
2018-12-30T07:42:09.590Z,148.00
2018-12-30T07:43:09.582Z,156.00
2018-12-30T07:44:09.576Z,156.00
2018-12-30T07:45:09.563Z,180.00
2018-12-30T07:46:09.559Z,176.00
2018-12-30T07:47:09.554Z,180.00
2018-12-30T07:48:09.549Z,176.00
2018-12-30T07:49:09.540Z,188.00
2018-12-30T07:50:09.531Z,200.00
2018-12-30T07:51:09.524Z,168.00
2018-12-30T07:52:09.526Z,168.00
2018-12-30T07:53:13.741Z,188.00
2018-12-30T07:54:09.503Z,192.00
2018-12-30T07:55:09.494Z,204.00
2018-12-30T07:56:09.486Z,196.00
2018-12-30T07:57:09.478Z,196.00
2018-12-30T07:58:09.473Z,208.00
2018-12-30T07:59:09.465Z,208.00
2018-12-30T08:00:09.457Z,204.00
2018-12-30T08:01:09.447Z,180.00
2018-12-30T08:02:09.441Z,196.00
2018-12-30T08:03:09.436Z,212.00
2018-12-30T08:04:09.430Z,232.00
2018-12-30T08:05:09.417Z,240.00
2018-12-30T08:06:09.412Z,304.00
2018-12-30T08:07:09.403Z,320.00
2018-12-30T08:08:09.397Z,312.00
2018-12-30T08:09:09.390Z,316.00
2018-12-30T08:10:09.382Z,368.00
2018-12-30T08:11:09.377Z,280.00
2018-12-30T08:12:09.366Z,248.00
2018-12-30T08:13:09.362Z,216.00
2018-12-30T08:14:09.354Z,232.00
2018-12-30T08:15:09.346Z,232.00
2018-12-30T08:16:09.341Z,152.00
2018-12-30T08:17:09.332Z,156.00
2018-12-30T08:18:09.325Z,200.00
2018-12-30T08:19:09.317Z,200.00
2018-12-30T08:20:09.313Z,164.00
2018-12-30T08:21:09.303Z,180.00
2018-12-30T08:22:09.296Z,244.00
2018-12-30T08:23:09.288Z,228.00
2018-12-30T08:24:09.280Z,216.00
2018-12-30T08:25:09.273Z,176.00
2018-12-30T08:26:09.271Z,228.00
2018-12-30T08:27:09.260Z,184.00
2018-12-30T08:28:09.252Z,248.00
2018-12-30T08:29:09.246Z,248.00
2018-12-30T08:30:09.242Z,220.00
2018-12-30T08:31:09.236Z,228.00
2018-12-30T08:32:09.225Z,260.00
2018-12-30T08:33:09.217Z,220.00
2018-12-30T08:34:09.210Z,264.00
2018-12-30T08:35:09.201Z,216.00
2018-12-30T08:36:09.193Z,264.00
2018-12-30T08:37:09.188Z,260.00
2018-12-30T08:38:09.185Z,328.00
2018-12-30T08:39:09.172Z,404.00
2018-12-30T08:40:09.170Z,296.00
2018-12-30T08:41:09.158Z,300.00
2018-12-30T08:42:09.151Z,344.00
2018-12-30T08:43:09.144Z,316.00
2018-12-30T08:44:09.146Z,280.00
2018-12-30T08:45:09.133Z,268.00
2018-12-30T08:46:09.122Z,276.00
2018-12-30T08:47:09.115Z,288.00
2018-12-30T08:48:09.108Z,320.00
2018-12-30T08:49:09.101Z,376.00
2018-12-30T08:50:09.094Z,452.00
2018-12-30T08:51:10.332Z,388.00
2018-12-30T08:52:09.080Z,340.00
2018-12-30T08:53:09.073Z,384.00
2018-12-30T08:54:09.067Z,392.00
2018-12-30T08:55:09.118Z,464.00
2018-12-30T08:56:09.058Z,512.00
2018-12-30T08:57:09.043Z,548.00
2018-12-30T08:58:09.037Z,456.00
2018-12-30T08:59:09.032Z,380.00
2018-12-30T09:00:09.022Z,364.00
2018-12-30T09:01:09.016Z,440.00
2018-12-30T09:02:09.008Z,404.00
2018-12-30T09:03:09.003Z,484.00
2018-12-30T09:04:08.993Z,496.00
2018-12-30T09:05:08.987Z,596.00
2018-12-30T09:06:08.981Z,656.00
2018-12-30T09:07:08.976Z,648.00
2018-12-30T09:08:08.967Z,548.00
2018-12-30T09:09:08.952Z,504.00
2018-12-30T09:10:08.950Z,512.00
2018-12-30T09:11:08.945Z,500.00
2018-12-30T09:12:08.937Z,488.00
2018-12-30T09:13:08.932Z,496.00
2018-12-30T09:14:08.924Z,612.00
2018-12-30T09:15:08.919Z,636.00
2018-12-30T09:16:08.913Z,600.00
2018-12-30T09:17:08.963Z,740.00
2018-12-30T09:18:08.895Z,644.00
2018-12-30T09:19:08.890Z,616.00
2018-12-30T09:20:08.882Z,648.00
2018-12-30T09:21:08.876Z,628.00
2018-12-30T09:22:08.869Z,776.00
2018-12-30T09:23:08.863Z,852.00
2018-12-30T09:24:08.855Z,768.00
2018-12-30T09:25:08.845Z,788.00
2018-12-30T09:26:08.841Z,836.00
2018-12-30T09:27:08.834Z,1092.00
2018-12-30T09:28:08.827Z,936.00
2018-12-30T09:29:08.820Z,864.00
2018-12-30T09:30:08.814Z,1004.00
2018-12-30T09:31:08.812Z,824.00
2018-12-30T09:32:08.802Z,984.00
2018-12-30T09:33:08.790Z,848.00
2018-12-30T09:34:08.786Z,892.00
2018-12-30T09:35:08.779Z,880.00
2018-12-30T09:36:08.775Z,684.00
2018-12-30T09:37:08.768Z,728.00
2018-12-30T09:38:08.759Z,820.00
2018-12-30T09:39:08.753Z,828.00
2018-12-30T09:40:08.745Z,988.00
2018-12-30T09:41:08.741Z,840.00
2018-12-30T09:42:08.731Z,1032.00
2018-12-30T09:43:08.724Z,1296.00
2018-12-30T09:44:08.718Z,1124.00
2018-12-30T09:45:08.716Z,1244.00
2018-12-30T09:46:08.707Z,1224.00
2018-12-30T09:47:08.700Z,1328.00
2018-12-30T09:48:08.691Z,1224.00
2018-12-30T09:49:08.685Z,1152.00
2018-12-30T09:50:08.676Z,1152.00
2018-12-30T09:51:08.670Z,1164.00
2018-12-30T09:52:08.669Z,1032.00
2018-12-30T09:53:08.656Z,1028.00
2018-12-30T09:54:08.651Z,936.00
2018-12-30T09:55:08.644Z,1336.00
2018-12-30T09:56:08.637Z,1184.00
2018-12-30T09:57:08.633Z,1448.00
2018-12-30T09:58:08.626Z,1412.00
2018-12-30T09:59:08.616Z,1376.00
2018-12-30T10:00:08.612Z,1268.00
2018-12-30T10:01:08.608Z,1228.00
2018-12-30T10:02:08.597Z,1500.00
2018-12-30T10:03:08.591Z,1464.00
2018-12-30T10:04:08.584Z,1360.00
2018-12-30T10:05:08.584Z,1720.00
2018-12-30T10:06:08.570Z,1464.00
2018-12-30T10:07:08.565Z,1156.00
2018-12-30T10:08:08.556Z,1268.00
2018-12-30T10:09:08.557Z,1236.00
2018-12-30T10:10:08.543Z,1400.00
2018-12-30T10:11:08.549Z,1540.00
2018-12-30T10:12:08.530Z,1364.00
2018-12-30T10:13:08.523Z,1352.00
2018-12-30T10:14:08.521Z,1460.00
2018-12-30T10:15:09.941Z,1284.00
2018-12-30T10:16:08.506Z,1584.00
2018-12-30T10:17:08.497Z,1084.00
2018-12-30T10:18:08.491Z,1104.00
2018-12-30T10:19:08.488Z,1424.00
2018-12-30T10:20:08.479Z,1312.00
2018-12-30T10:21:08.472Z,1548.00
2018-12-30T10:22:08.466Z,1732.00
2018-12-30T10:23:08.463Z,1652.00
2018-12-30T10:24:08.453Z,1476.00
2018-12-30T10:25:08.445Z,1648.00
2018-12-30T10:26:08.438Z,1740.00
2018-12-30T10:27:08.433Z,1952.00
2018-12-30T10:28:08.428Z,1640.00
2018-12-30T10:29:08.422Z,2004.00
2018-12-30T10:30:08.413Z,1540.00
2018-12-30T10:31:08.412Z,2024.00
2018-12-30T10:32:08.407Z,1672.00
2018-12-30T10:33:08.395Z,1760.00
2018-12-30T10:34:08.387Z,1796.00
2018-12-30T10:35:08.381Z,1612.00
2018-12-30T10:36:08.378Z,1604.00
2018-12-30T10:37:08.368Z,1300.00
2018-12-30T10:38:08.363Z,1168.00
2018-12-30T10:39:08.356Z,1016.00
2018-12-30T10:40:08.350Z,1152.00
2018-12-30T10:41:08.342Z,1140.00
2018-12-30T10:42:08.338Z,1208.00
2018-12-30T10:43:08.332Z,944.00
2018-12-30T10:44:08.327Z,784.00
2018-12-30T10:45:08.327Z,1004.00
2018-12-30T10:46:08.312Z,1220.00
2018-12-30T10:47:08.313Z,1216.00
2018-12-30T10:48:08.299Z,1624.00
2018-12-30T10:49:08.290Z,1096.00
2018-12-30T10:50:08.288Z,808.00
2018-12-30T10:51:08.281Z,1296.00
2018-12-30T10:52:08.277Z,1640.00
2018-12-30T10:53:08.265Z,1536.00
2018-12-30T10:54:08.261Z,1784.00
2018-12-30T10:55:08.256Z,1808.00
2018-12-30T10:56:08.249Z,1912.00
2018-12-30T10:57:08.239Z,1832.00
2018-12-30T10:58:08.235Z,1532.00
2018-12-30T10:59:08.232Z,1796.00
2018-12-30T11:00:08.223Z,1912.00
2018-12-30T11:01:08.215Z,1548.00
2018-12-30T11:02:08.211Z,1380.00
2018-12-30T11:03:08.204Z,1664.00
2018-12-30T11:04:08.199Z,1788.00
2018-12-30T11:05:08.195Z,1344.00
2018-12-30T11:06:08.185Z,1564.00
2018-12-30T11:07:08.182Z,1488.00
2018-12-30T11:08:08.174Z,1432.00
2018-12-30T11:09:08.170Z,2000.00
2018-12-30T11:10:08.159Z,1564.00
2018-12-30T11:11:08.153Z,1476.00
2018-12-30T11:12:08.147Z,1076.00
2018-12-30T11:13:08.139Z,1240.00
2018-12-30T11:14:08.134Z,1276.00
2018-12-30T11:15:08.129Z,1840.00
2018-12-30T11:16:08.123Z,1716.00
2018-12-30T11:17:08.114Z,1340.00
2018-12-30T11:18:08.109Z,1312.00
2018-12-30T11:19:08.102Z,1172.00
2018-12-30T11:20:08.101Z,1896.00
2018-12-30T11:21:08.091Z,1404.00
2018-12-30T11:22:08.084Z,1044.00
2018-12-30T11:23:08.076Z,948.00
2018-12-30T11:24:08.789Z,1092.00
2018-12-30T11:25:08.065Z,1288.00
2018-12-30T11:26:08.059Z,1140.00
2018-12-30T11:27:08.051Z,1124.00
2018-12-30T11:28:08.044Z,1324.00
2018-12-30T11:29:08.038Z,1516.00
2018-12-30T11:30:08.033Z,1656.00
2018-12-30T11:31:08.026Z,1476.00
2018-12-30T11:32:08.019Z,1744.00
2018-12-30T11:33:08.013Z,1548.00
2018-12-30T11:34:08.006Z,1504.00
2018-12-30T11:35:08.002Z,1484.00
2018-12-30T11:36:07.991Z,1600.00
2018-12-30T11:37:07.987Z,1480.00
2018-12-30T11:38:07.978Z,1316.00
2018-12-30T11:39:07.975Z,1204.00
2018-12-30T11:40:07.967Z,1540.00
2018-12-30T11:41:07.963Z,1540.00
2018-12-30T11:42:07.953Z,1704.00
2018-12-30T11:43:07.952Z,1380.00
2018-12-30T11:44:07.942Z,1560.00
2018-12-30T11:45:07.935Z,1772.00
2018-12-30T11:46:07.932Z,1612.00
2018-12-30T11:47:07.935Z,1612.00
2018-12-30T11:48:07.919Z,1760.00
2018-12-30T11:49:07.910Z,1616.00
2018-12-30T11:50:07.905Z,1524.00
2018-12-30T11:51:07.899Z,2108.00
2018-12-30T11:52:07.895Z,1852.00
2018-12-30T11:53:07.887Z,1992.00
2018-12-30T11:54:07.884Z,2176.00
2018-12-30T11:55:07.879Z,1796.00
2018-12-30T11:56:07.868Z,1792.00
2018-12-30T11:57:07.864Z,1544.00
2018-12-30T11:58:07.854Z,1792.00
2018-12-30T11:59:09.041Z,1460.00
2018-12-30T12:00:07.846Z,1396.00
2018-12-30T12:01:07.844Z,1584.00
2018-12-30T12:02:07.833Z,1460.00
2018-12-30T12:03:07.826Z,1236.00
2018-12-30T12:04:07.821Z,1036.00
2018-12-30T12:05:07.815Z,924.00
2018-12-30T12:06:07.807Z,860.00
2018-12-30T12:07:07.801Z,1000.00
2018-12-30T12:08:07.796Z,1016.00
2018-12-30T12:09:07.793Z,1104.00
2018-12-30T12:10:07.783Z,1100.00
2018-12-30T12:11:07.776Z,1352.00
2018-12-30T12:12:07.771Z,1248.00
2018-12-30T12:13:07.762Z,1396.00
2018-12-30T12:14:07.758Z,1268.00
2018-12-30T12:15:07.754Z,1236.00
2018-12-30T12:16:07.748Z,1212.00
2018-12-30T12:17:07.739Z,1304.00
2018-12-30T12:18:07.738Z,1388.00
2018-12-30T12:19:07.727Z,1208.00
2018-12-30T12:20:07.722Z,1328.00
2018-12-30T12:21:07.716Z,1372.00
2018-12-30T12:22:07.709Z,1316.00
2018-12-30T12:23:07.704Z,1328.00
2018-12-30T12:24:07.697Z,1200.00
2018-12-30T12:25:07.690Z,1080.00
2018-12-30T12:26:07.681Z,1088.00
2018-12-30T12:27:07.686Z,1108.00
2018-12-30T12:28:07.677Z,996.00
2018-12-30T12:29:07.663Z,1056.00
2018-12-30T12:30:07.659Z,960.00
2018-12-30T12:31:07.652Z,916.00
2018-12-30T12:32:07.648Z,900.00
2018-12-30T12:33:07.636Z,1052.00
2018-12-30T12:34:07.631Z,1192.00
2018-12-30T12:35:07.627Z,1172.00
2018-12-30T12:36:07.620Z,1016.00
2018-12-30T12:37:07.612Z,980.00
2018-12-30T12:38:07.608Z,1040.00
2018-12-30T12:39:07.601Z,1100.00
2018-12-30T12:40:07.595Z,1000.00
2018-12-30T12:41:07.590Z,1020.00
2018-12-30T12:42:07.582Z,920.00
2018-12-30T12:43:07.582Z,848.00
2018-12-30T12:44:07.572Z,816.00
2018-12-30T12:45:07.564Z,844.00
2018-12-30T12:46:07.570Z,824.00
2018-12-30T12:47:07.550Z,1020.00
2018-12-30T12:48:07.549Z,1088.00
2018-12-30T12:49:07.534Z,1068.00
2018-12-30T12:50:07.530Z,1108.00